Time;durP1;ratioP1;P1;durP2;ratioP2;P2;SDS_P1;SDS_P2;PMS_P1;PMS_P2;Temp;Humidity;BMP_temperature;BMP_pressure;BME280_temperature;BME280_humidity;BME280_pressure;Samples;Min_cycle;Max_cycle;Signal;HPM_P1;HPM_P2
2024/04/21 00:02:16;;;;;;;7.50;7.40;;;;;;;;;;5453954;25;20565;-69
2024/04/21 00:04:45;;;;;;;7.43;7.33;;;;;;;;;;5452009;26;20508;-68
2024/04/21 00:07:12;;;;;;;7.53;7.43;;;;;;;;;;5452231;26;20470;-68
2024/04/21 00:09:40;;;;;;;7.00;6.90;;;;;;;;;;5448889;25;20529;-67
2024/04/21 00:12:09;;;;;;;7.27;7.17;;;;;;;;;;5452869;26;20489;-69
2024/04/21 00:14:38;;;;;;;7.40;7.30;;;;;;;;;;5451052;26;20909;-68
2024/04/21 00:17:05;;;;;;;7.83;7.73;;;;;;;;;;5449742;25;21739;-68
2024/04/21 00:19:33;;;;;;;7.77;7.67;;;;;;;;;;5450330;26;21020;-69
2024/04/21 00:22:00;;;;;;;7.17;7.07;;;;;;;;;;5450280;26;20566;-68
2024/04/21 00:24:30;;;;;;;9.00;8.80;;;;;;;;;;5454963;26;20465;-67
2024/04/21 00:26:56;;;;;;;10.57;10.37;;;;;;;;;;5451190;26;20591;-67
2024/04/21 00:29:28;;;;;;;14.20;13.70;;;;;;;;;;5447217;26;20579;-67
2024/04/21 00:31:54;;;;;;;15.60;15.00;;;;;;;;;;5451277;26;20575;-69
2024/04/21 00:34:24;;;;;;;15.30;14.70;;;;;;;;;;5452555;26;20552;-68
2024/04/21 00:36:50;;;;;;;15.10;14.50;;;;;;;;;;5449947;26;20984;-68
2024/04/21 00:39:19;;;;;;;14.80;14.30;;;;;;;;;;5448412;26;20493;-68
2024/04/21 00:41:45;;;;;;;14.80;14.30;;;;;;;;;;5452783;26;20532;-68
2024/04/21 00:44:14;;;;;;;14.83;14.33;;;;;;;;;;5448059;26;20466;-68
2024/04/21 00:46:43;;;;;;;14.03;13.53;;;;;;;;;;5450528;26;20474;-68
2024/04/21 00:49:14;;;;;;;14.23;13.73;;;;;;;;;;5452225;26;20479;-67
2024/04/21 00:51:40;;;;;;;14.80;14.30;;;;;;;;;;5453699;25;20816;-69
2024/04/21 00:54:09;;;;;;;14.60;14.10;;;;;;;;;;5454896;26;21296;-69
2024/04/21 00:56:36;;;;;;;14.47;13.97;;;;;;;;;;5451958;26;20503;-69
2024/04/21 00:59:05;;;;;;;13.83;13.33;;;;;;;;;;5499152;26;20476;-68
2024/04/21 01:01:32;;;;;;;14.20;13.70;;;;;;;;;;5505715;26;20573;-67
2024/04/21 01:04:03;;;;;;;14.50;14.00;;;;;;;;;;5494338;26;20557;-68
2024/04/21 01:06:30;;;;;;;14.50;14.00;;;;;;;;;;5506594;25;20478;-68
2024/04/21 01:08:58;;;;;;;14.90;14.40;;;;;;;;;;5506659;26;20546;-67
2024/04/21 01:11:25;;;;;;;14.93;14.40;;;;;;;;;;5498692;26;20933;-68
2024/04/21 01:13:54;;;;;;;14.70;14.20;;;;;;;;;;5521672;25;20453;-68
2024/04/21 01:16:20;;;;;;;14.60;14.10;;;;;;;;;;5516329;25;20609;-68
2024/04/21 01:18:50;;;;;;;14.77;14.27;;;;;;;;;;5506564;26;20484;-68
2024/04/21 01:21:19;;;;;;;14.43;13.93;;;;;;;;;;5494901;26;20474;-68
2024/04/21 01:23:50;;;;;;;15.37;14.77;;;;;;;;;;5496470;26;20474;-68
2024/04/21 01:26:16;;;;;;;15.10;14.50;;;;;;;;;;5514674;26;20552;-68
2024/04/21 01:28:45;;;;;;;15.20;14.60;;;;;;;;;;5502298;26;20492;-68
2024/04/21 01:31:11;;;;;;;15.50;14.90;;;;;;;;;;5512291;26;20946;-67
2024/04/21 01:33:41;;;;;;;15.27;14.67;;;;;;;;;;5499713;26;20533;-67
2024/04/21 01:36:09;;;;;;;15.80;15.20;;;;;;;;;;5504059;26;20972;-68
2024/04/21 01:38:37;;;;;;;15.70;15.10;;;;;;;;;;5497506;25;20552;-68
2024/04/21 01:41:06;;;;;;;16.20;15.50;;;;;;;;;;5492081;26;20548;-68
2024/04/21 01:43:35;;;;;;;16.63;15.93;;;;;;;;;;5511352;25;20518;-67
2024/04/21 01:46:01;;;;;;;17.30;16.50;;;;;;;;;;5511377;26;21063;-67
2024/04/21 01:48:31;;;;;;;17.07;16.27;;;;;;;;;;5515935;26;20460;-68
2024/04/21 01:50:57;;;;;;;16.83;16.03;;;;;;;;;;5493734;26;20519;-67
2024/04/21 01:53:26;;;;;;;17.70;16.90;;;;;;;;;;5505026;25;20484;-70
2024/04/21 01:55:52;;;;;;;17.53;16.73;;;;;;;;;;5504722;26;20473;-67
2024/04/21 01:58:24;;;;;;;17.10;16.30;;;;;;;;;;5504749;26;20530;-68
2024/04/21 02:00:50;;;;;;;17.70;16.90;;;;;;;;;;5517276;25;20476;-67
2024/04/21 02:03:19;;;;;;;17.10;16.30;;;;;;;;;;5519055;25;20570;-68
2024/04/21 02:05:46;;;;;;;16.83;16.13;;;;;;;;;;5501539;26;21079;-68
2024/04/21 02:08:15;;;;;;;16.90;16.20;;;;;;;;;;5498514;26;20478;-67
2024/04/21 02:10:44;;;;;;;16.63;15.93;;;;;;;;;;5500993;26;20610;-67
2024/04/21 02:13:10;;;;;;;16.83;16.13;;;;;;;;;;5492485;26;20492;-68
2024/04/21 02:15:42;;;;;;;16.03;15.43;;;;;;;;;;5509653;26;21117;-68
2024/04/21 02:18:08;;;;;;;16.30;15.63;;;;;;;;;;5501716;26;20578;-68
2024/04/21 02:20:37;;;;;;;16.33;15.63;;;;;;;;;;5519526;25;21102;-68
2024/04/21 02:23:04;;;;;;;16.50;15.80;;;;;;;;;;5511453;26;20647;-69
2024/04/21 02:25:33;;;;;;;17.00;16.30;;;;;;;;;;5499619;26;20499;-69
2024/04/21 02:27:59;;;;;;;17.40;16.70;;;;;;;;;;5509942;26;20468;-67
2024/04/21 02:30:29;;;;;;;16.60;15.90;;;;;;;;;;5499433;26;20911;-67
2024/04/21 02:32:58;;;;;;;17.40;16.70;;;;;;;;;;5513554;25;20530;-68
2024/04/21 02:35:27;;;;;;;16.97;16.27;;;;;;;;;;5512121;26;20489;-67
2024/04/21 02:37:54;;;;;;;17.40;16.70;;;;;;;;;;5512913;26;20640;-67
2024/04/21 02:40:23;;;;;;;17.47;16.77;;;;;;;;;;5501388;26;20882;-67
2024/04/21 02:42:51;;;;;;;17.60;16.90;;;;;;;;;;5502388;26;20540;-68
2024/04/21 02:45:20;;;;;;;17.53;16.83;;;;;;;;;;5495237;26;20466;-67
2024/04/21 02:47:46;;;;;;;17.63;16.93;;;;;;;;;;5495229;26;20579;-67
2024/04/21 02:50:18;;;;;;;17.73;17.03;;;;;;;;;;5494199;26;20797;-67
2024/04/21 02:52:44;;;;;;;18.27;17.57;;;;;;;;;;5501557;26;20471;-67
2024/04/21 02:55:14;;;;;;;17.87;17.17;;;;;;;;;;5502908;25;20578;-67
2024/04/21 02:57:40;;;;;;;18.53;17.83;;;;;;;;;;5501875;26;20483;-67
2024/04/21 03:00:09;;;;;;;18.07;17.37;;;;;;;;;;5515532;26;20991;-67
2024/04/21 03:02:37;;;;;;;17.50;16.80;;;;;;;;;;5505094;26;20516;-70
2024/04/21 03:05:07;;;;;;;18.27;17.57;;;;;;;;;;5508548;26;20513;-67
2024/04/21 03:07:36;;;;;;;17.17;16.57;;;;;;;;;;5502237;26;20534;-67
2024/04/21 03:10:06;;;;;;;18.30;17.60;;;;;;;;;;5514342;26;20859;-67
2024/04/21 03:12:32;;;;;;;18.00;17.30;;;;;;;;;;5502810;25;20470;-67
2024/04/21 03:15:01;;;;;;;17.17;16.57;;;;;;;;;;5505545;26;20807;-67
2024/04/21 03:17:27;;;;;;;18.50;17.80;;;;;;;;;;5497328;25;20959;-70
2024/04/21 03:19:57;;;;;;;18.03;17.33;;;;;;;;;;5508162;26;21038;-68
2024/04/21 03:22:23;;;;;;;18.20;17.50;;;;;;;;;;5507398;25;20568;-67
2024/04/21 03:24:55;;;;;;;18.73;18.00;;;;;;;;;;5508667;25;20545;-67
2024/04/21 03:27:21;;;;;;;18.47;17.77;;;;;;;;;;5500740;25;20480;-67
2024/04/21 03:29:51;;;;;;;18.17;17.47;;;;;;;;;;5517279;26;21102;-68
2024/04/21 03:32:17;;;;;;;18.77;18.07;;;;;;;;;;5509610;26;20957;-68
2024/04/21 03:34:47;;;;;;;18.40;17.70;;;;;;;;;;5509612;25;20480;-67
2024/04/21 03:37:19;;;;;;;19.10;18.40;;;;;;;;;;5518488;26;20582;-67
2024/04/21 03:39:47;;;;;;;19.00;18.30;;;;;;;;;;5504117;25;20469;-69
2024/04/21 03:42:20;;;;;;;19.40;18.70;;;;;;;;;;5507461;26;20472;-67
2024/04/21 03:44:49;;;;;;;19.00;18.30;;;;;;;;;;5504197;25;20512;-68
2024/04/21 03:47:15;;;;;;;19.50;18.70;;;;;;;;;;5517557;26;20464;-67
2024/04/21 03:49:46;;;;;;;18.93;18.23;;;;;;;;;;5495245;26;20474;-67
2024/04/21 03:52:13;;;;;;;19.00;18.30;;;;;;;;;;5507732;25;20526;-68
2024/04/21 03:54:42;;;;;;;17.93;17.23;;;;;;;;;;5506642;26;20478;-67
2024/04/21 03:57:08;;;;;;;18.67;17.97;;;;;;;;;;5511712;26;20590;-67
2024/04/21 03:59:39;;;;;;;19.00;18.30;;;;;;;;;;5498813;25;20530;-67
2024/04/21 04:02:06;;;;;;;19.50;18.70;;;;;;;;;;5499686;25;20477;-69
2024/04/21 04:04:35;;;;;;;19.57;18.80;;;;;;;;;;5496421;26;21038;-68
2024/04/21 04:07:01;;;;;;;18.77;18.07;;;;;;;;;;5496928;25;20550;-68
2024/04/21 04:09:30;;;;;;;18.37;17.67;;;;;;;;;;5512872;25;20479;-68
2024/04/21 04:11:57;;;;;;;18.87;18.17;;;;;;;;;;5517107;26;20520;-68
2024/04/21 04:14:26;;;;;;;18.60;17.90;;;;;;;;;;5502929;26;20987;-68
2024/04/21 04:16:55;;;;;;;19.90;19.10;;;;;;;;;;5503036;26;20478;-68
2024/04/21 04:19:24;;;;;;;19.40;18.70;;;;;;;;;;5516376;25;20857;-68
2024/04/21 04:21:50;;;;;;;19.90;19.10;;;;;;;;;;5502867;26;20626;-69
2024/04/21 04:24:19;;;;;;;19.30;18.60;;;;;;;;;;5510333;26;20504;-68
2024/04/21 04:26:45;;;;;;;19.80;19.00;;;;;;;;;;5490631;25;20526;-69
2024/04/21 04:29:14;;;;;;;20.10;19.30;;;;;;;;;;5491868;26;20480;-69
2024/04/21 04:31:41;;;;;;;19.17;18.47;;;;;;;;;;5512709;26;20536;-68
2024/04/21 04:34:14;;;;;;;19.77;18.97;;;;;;;;;;5495266;26;20528;-67
2024/04/21 04:36:41;;;;;;;19.70;18.90;;;;;;;;;;5505751;26;20471;-68
2024/04/21 04:39:11;;;;;;;19.73;18.93;;;;;;;;;;5500299;26;20521;-69
2024/04/21 04:41:38;;;;;;;18.93;18.23;;;;;;;;;;5508369;26;20480;-67
2024/04/21 04:44:07;;;;;;;19.10;18.40;;;;;;;;;;5502177;26;20475;-68
2024/04/21 04:46:34;;;;;;;19.40;18.70;;;;;;;;;;5503150;25;20571;-68
2024/04/21 04:49:03;;;;;;;19.30;18.60;;;;;;;;;;5504953;25;20527;-68
2024/04/21 04:51:34;;;;;;;18.70;18.00;;;;;;;;;;5508699;26;20496;-68
2024/04/21 04:54:01;;;;;;;17.53;16.83;;;;;;;;;;5494489;26;20548;-67
2024/04/21 04:56:30;;;;;;;17.77;17.07;;;;;;;;;;5505357;26;20493;-68
2024/04/21 04:58:56;;;;;;;17.80;17.10;;;;;;;;;;5508645;26;20460;-69
2024/04/21 05:01:25;;;;;;;17.20;16.60;;;;;;;;;;5496775;26;20481;-67
2024/04/21 05:03:51;;;;;;;18.77;18.07;;;;;;;;;;5499597;26;20488;-68
2024/04/21 05:06:20;;;;;;;18.13;17.43;;;;;;;;;;5505106;26;21074;-68
2024/04/21 05:08:49;;;;;;;18.30;17.60;;;;;;;;;;5498448;26;20637;-67
2024/04/21 05:11:18;;;;;;;16.87;16.27;;;;;;;;;;5513113;26;20466;-67
2024/04/21 05:13:45;;;;;;;17.70;17.00;;;;;;;;;;5510028;26;20549;-68
2024/04/21 05:16:14;;;;;;;17.20;16.50;;;;;;;;;;5515034;26;20562;-68
2024/04/21 05:18:40;;;;;;;17.17;16.47;;;;;;;;;;5512315;26;20508;-69
2024/04/21 05:21:09;;;;;;;16.63;15.93;;;;;;;;;;5497904;26;20472;-69
2024/04/21 05:23:36;;;;;;;16.77;16.07;;;;;;;;;;5501491;26;21130;-68
2024/04/21 05:26:08;;;;;;;17.27;16.57;;;;;;;;;;5496223;26;20492;-67
2024/04/21 05:28:34;;;;;;;17.67;16.90;;;;;;;;;;5500336;26;20553;-68
2024/04/21 05:31:03;;;;;;;17.13;16.43;;;;;;;;;;5502087;25;20477;-68
2024/04/21 05:33:30;;;;;;;17.00;16.30;;;;;;;;;;5510393;26;20537;-68
2024/04/21 05:35:59;;;;;;;16.97;16.27;;;;;;;;;;5501676;25;20566;-68
2024/04/21 05:38:25;;;;;;;16.60;15.90;;;;;;;;;;5509677;26;20573;-67
2024/04/21 05:40:55;;;;;;;17.10;16.40;;;;;;;;;;5505238;25;20480;-68
2024/04/21 05:43:24;;;;;;;16.30;15.60;;;;;;;;;;5510149;25;20540;-67
2024/04/21 05:46:01;;;;;;;17.60;16.80;;;;;;;;;;5518309;25;20516;-68
2024/04/21 05:48:27;;;;;;;16.73;16.03;;;;;;;;;;5502212;25;20507;-67
2024/04/21 05:50:56;;;;;;;17.63;16.83;;;;;;;;;;5506671;26;20477;-68
2024/04/21 05:53:23;;;;;;;17.30;16.50;;;;;;;;;;5502913;26;20517;-68
2024/04/21 05:55:52;;;;;;;16.97;16.27;;;;;;;;;;5504024;26;20471;-68
2024/04/21 05:58:18;;;;;;;16.97;16.27;;;;;;;;;;5511138;26;20476;-68
2024/04/21 06:00:50;;;;;;;16.40;15.70;;;;;;;;;;5507755;26;20563;-68
2024/04/21 06:03:16;;;;;;;15.90;15.30;;;;;;;;;;5505929;26;20513;-68
2024/04/21 06:05:45;;;;;;;15.80;15.20;;;;;;;;;;5505653;26;21004;-67
2024/04/21 06:08:12;;;;;;;15.87;15.27;;;;;;;;;;5491102;26;20474;-68
2024/04/21 06:10:41;;;;;;;15.63;15.03;;;;;;;;;;5506554;26;20477;-68
2024/04/21 06:13:07;;;;;;;15.50;14.90;;;;;;;;;;5509316;26;20474;-68
2024/04/21 06:15:36;;;;;;;15.40;14.80;;;;;;;;;;5511236;26;21132;-68
2024/04/21 06:18:06;;;;;;;15.87;15.27;;;;;;;;;;5502839;26;20470;-68
2024/04/21 06:20:36;;;;;;;15.67;15.07;;;;;;;;;;5509293;26;20804;-68
2024/04/21 06:23:03;;;;;;;15.70;15.10;;;;;;;;;;5506793;26;20528;-68
2024/04/21 06:25:32;;;;;;;15.50;14.90;;;;;;;;;;5504882;26;20869;-68
2024/04/21 06:27:58;;;;;;;15.70;15.10;;;;;;;;;;5503453;26;20480;-69
2024/04/21 06:30:27;;;;;;;15.20;14.60;;;;;;;;;;5510946;25;20459;-68
2024/04/21 06:32:54;;;;;;;14.50;14.00;;;;;;;;;;5498068;26;20597;-67
2024/04/21 06:35:26;;;;;;;14.33;13.83;;;;;;;;;;5508086;26;21077;-68
2024/04/21 06:37:53;;;;;;;14.33;13.83;;;;;;;;;;5503599;26;20470;-68
2024/04/21 06:40:22;;;;;;;14.10;13.60;;;;;;;;;;5504195;25;20558;-68
2024/04/21 06:42:48;;;;;;;13.90;13.40;;;;;;;;;;5497437;25;20548;-68
2024/04/21 06:45:17;;;;;;;13.43;13.03;;;;;;;;;;5510594;26;20531;-68
2024/04/21 06:47:44;;;;;;;13.90;13.50;;;;;;;;;;5511019;26;20862;-68
2024/04/21 06:50:13;;;;;;;12.60;12.20;;;;;;;;;;5501892;26;20467;-70
2024/04/21 06:52:42;;;;;;;14.33;13.83;;;;;;;;;;5510269;26;20465;-69
2024/04/21 06:55:11;;;;;;;14.10;13.60;;;;;;;;;;5493092;26;20467;-69
2024/04/21 06:57:37;;;;;;;14.00;13.57;;;;;;;;;;5507516;25;20541;-69
2024/04/21 07:00:07;;;;;;;14.17;13.67;;;;;;;;;;5508513;25;20476;-68
2024/04/21 07:02:35;;;;;;;14.47;13.97;;;;;;;;;;5503499;26;20583;-69
2024/04/21 07:05:02;;;;;;;14.10;13.60;;;;;;;;;;5511619;25;21202;-70
2024/04/21 07:07:31;;;;;;;13.87;13.37;;;;;;;;;;5507990;25;20523;-69
2024/04/21 07:10:00;;;;;;;14.00;13.50;;;;;;;;;;5502044;25;20529;-69
2024/04/21 07:12:29;;;;;;;14.00;13.50;;;;;;;;;;5496608;25;20602;-69
2024/04/21 07:14:55;;;;;;;14.77;14.20;;;;;;;;;;5510942;26;20488;-68
2024/04/21 07:17:24;;;;;;;14.57;14.07;;;;;;;;;;5510054;26;20845;-69
2024/04/21 07:19:50;;;;;;;15.23;14.63;;;;;;;;;;5491074;25;20561;-68
2024/04/21 07:22:20;;;;;;;15.60;15.00;;;;;;;;;;5483743;26;20475;-70
2024/04/21 07:24:47;;;;;;;15.10;14.50;;;;;;;;;;5467844;26;20471;-69
2024/04/21 07:27:19;;;;;;;14.63;14.13;;;;;;;;;;5478369;26;21003;-70
2024/04/21 07:29:45;;;;;;;14.87;14.27;;;;;;;;;;5462216;26;20593;-69
2024/04/21 07:32:14;;;;;;;14.67;14.13;;;;;;;;;;5471476;26;20541;-68
2024/04/21 07:34:40;;;;;;;14.57;14.07;;;;;;;;;;5474611;26;20999;-71
2024/04/21 07:37:09;;;;;;;14.03;13.53;;;;;;;;;;5476984;26;20906;-70
2024/04/21 07:39:35;;;;;;;14.10;13.60;;;;;;;;;;5475974;26;20475;-69
2024/04/21 07:42:05;;;;;;;14.93;14.43;;;;;;;;;;5480222;26;20475;-71
2024/04/21 07:44:34;;;;;;;15.13;14.53;;;;;;;;;;5462225;26;20537;-69
2024/04/21 07:47:03;;;;;;;15.50;14.90;;;;;;;;;;5478361;26;20793;-70
2024/04/21 07:49:29;;;;;;;15.50;14.90;;;;;;;;;;5475667;26;20508;-71
2024/04/21 07:51:58;;;;;;;15.10;14.57;;;;;;;;;;5475911;26;20520;-70
2024/04/21 07:54:24;;;;;;;14.13;13.63;;;;;;;;;;5477657;26;20462;-69
2024/04/21 07:56:55;;;;;;;13.63;13.23;;;;;;;;;;5480408;26;20477;-69
2024/04/21 07:59:21;;;;;;;13.00;12.60;;;;;;;;;;5463241;26;20538;-70
2024/04/21 08:01:53;;;;;;;13.43;13.03;;;;;;;;;;5473908;26;20530;-69
2024/04/21 08:04:19;;;;;;;13.20;12.80;;;;;;;;;;5464226;26;20541;-71
2024/04/21 08:06:48;;;;;;;14.10;13.60;;;;;;;;;;5480838;26;20458;-69
2024/04/21 08:09:14;;;;;;;13.40;13.00;;;;;;;;;;5469421;26;20625;-70
2024/04/21 08:11:43;;;;;;;13.43;13.03;;;;;;;;;;5466932;26;20466;-70
2024/04/21 08:14:09;;;;;;;13.57;13.17;;;;;;;;;;5457775;26;20471;-69
2024/04/21 08:16:39;;;;;;;13.43;13.03;;;;;;;;;;5474506;26;20999;-70
2024/04/21 08:19:08;;;;;;;13.57;13.17;;;;;;;;;;5480479;26;20523;-69
2024/04/21 08:21:37;;;;;;;13.47;13.07;;;;;;;;;;5477101;26;20471;-69
2024/04/21 08:24:04;;;;;;;14.20;13.70;;;;;;;;;;5469540;26;20538;-69
2024/04/21 08:26:33;;;;;;;14.57;14.07;;;;;;;;;;5480079;26;20552;-69
2024/04/21 08:29:00;;;;;;;14.47;13.97;;;;;;;;;;5470736;26;20546;-70
2024/04/21 08:31:29;;;;;;;14.90;14.40;;;;;;;;;;5471335;26;20476;-69
2024/04/21 08:33:55;;;;;;;15.40;14.80;;;;;;;;;;5458384;26;20478;-69
2024/04/21 08:36:26;;;;;;;15.00;14.50;;;;;;;;;;5473774;26;20463;-71
2024/04/21 08:38:52;;;;;;;14.70;14.20;;;;;;;;;;5469735;26;20523;-71
2024/04/21 08:41:24;;;;;;;14.53;14.03;;;;;;;;;;5476069;26;20460;-69
2024/04/21 08:43:51;;;;;;;14.80;14.30;;;;;;;;;;5463646;26;20465;-70
2024/04/21 08:46:20;;;;;;;15.17;14.63;;;;;;;;;;5466758;26;20474;-69
2024/04/21 08:48:48;;;;;;;15.40;14.80;;;;;;;;;;5461948;26;21060;-70
2024/04/21 08:51:17;;;;;;;15.73;15.13;;;;;;;;;;5442463;26;20475;-71
2024/04/21 08:53:45;;;;;;;15.63;15.03;;;;;;;;;;5466495;26;20493;-70
2024/04/21 08:56:19;;;;;;;15.73;15.13;;;;;;;;;;5460871;26;21092;-71
2024/04/21 08:58:48;;;;;;;15.63;15.03;;;;;;;;;;5455091;26;20531;-72
2024/04/21 09:01:19;;;;;;;15.80;15.20;;;;;;;;;;5452303;26;20557;-70
2024/04/21 09:03:47;;;;;;;14.90;14.40;;;;;;;;;;5456765;26;20565;-70
2024/04/21 09:06:17;;;;;;;14.63;14.13;;;;;;;;;;5459630;26;20483;-69
2024/04/21 09:08:46;;;;;;;15.03;14.53;;;;;;;;;;5457237;26;21057;-71
2024/04/21 09:11:15;;;;;;;15.03;14.53;;;;;;;;;;5463466;26;20574;-70
2024/04/21 09:13:41;;;;;;;15.20;14.60;;;;;;;;;;5469313;26;20978;-69
2024/04/21 09:16:10;;;;;;;14.80;14.30;;;;;;;;;;5465133;26;20539;-69
2024/04/21 09:18:36;;;;;;;15.27;14.70;;;;;;;;;;5476666;26;20952;-71
2024/04/21 09:21:05;;;;;;;15.40;14.80;;;;;;;;;;5473342;26;21116;-70
2024/04/21 09:23:34;;;;;;;15.30;14.70;;;;;;;;;;5466822;26;20534;-71
2024/04/21 09:26:06;;;;;;;14.90;14.40;;;;;;;;;;5472603;26;20895;-70
2024/04/21 09:28:32;;;;;;;15.40;14.80;;;;;;;;;;5499900;26;20529;-70
2024/04/21 09:31:01;;;;;;;15.43;14.83;;;;;;;;;;5479690;26;20792;-71
2024/04/21 09:33:29;;;;;;;16.00;15.40;;;;;;;;;;5474561;26;20528;-70
2024/04/21 09:36:00;;;;;;;15.97;15.37;;;;;;;;;;5464623;26;20626;-70
2024/04/21 09:38:27;;;;;;;15.47;14.87;;;;;;;;;;5471684;26;21522;-70
2024/04/21 09:40:58;;;;;;;16.03;15.43;;;;;;;;;;5469594;26;20522;-71
2024/04/21 09:43:27;;;;;;;16.13;15.53;;;;;;;;;;5479852;26;20473;-70
2024/04/21 09:45:59;;;;;;;16.10;15.50;;;;;;;;;;5463515;26;20475;-71
2024/04/21 09:48:27;;;;;;;16.33;15.73;;;;;;;;;;5498712;26;20474;-70
2024/04/21 09:50:56;;;;;;;15.90;15.30;;;;;;;;;;5479960;26;20478;-70
2024/04/21 09:53:24;;;;;;;16.50;15.90;;;;;;;;;;5480613;26;20533;-72
2024/04/21 09:55:57;;;;;;;16.97;16.37;;;;;;;;;;5469197;26;20479;-72
2024/04/21 09:58:25;;;;;;;17.03;16.43;;;;;;;;;;5466174;26;20465;-69
2024/04/21 10:00:59;;;;;;;16.57;15.97;;;;;;;;;;5457418;26;20731;-72
2024/04/21 10:03:25;;;;;;;16.87;16.27;;;;;;;;;;5466823;26;20583;-70
2024/04/21 10:05:54;;;;;;;16.57;15.97;;;;;;;;;;5469505;26;20477;-70
2024/04/21 10:08:21;;;;;;;16.80;16.20;;;;;;;;;;5471658;26;20486;-70
2024/04/21 10:10:52;;;;;;;16.10;15.50;;;;;;;;;;5462240;26;20599;-71
2024/04/21 10:13:19;;;;;;;16.27;15.67;;;;;;;;;;5468428;26;20472;-70
2024/04/21 10:15:48;;;;;;;16.90;16.30;;;;;;;;;;5480235;26;20518;-69
2024/04/21 10:18:23;;;;;;;16.87;16.23;;;;;;;;;;5468588;26;21342;-70
2024/04/21 10:20:53;;;;;;;16.70;16.10;;;;;;;;;;5451026;26;20998;-69
2024/04/21 10:23:19;;;;;;;16.40;15.80;;;;;;;;;;5466587;26;20489;-70
2024/04/21 10:25:49;;;;;;;15.80;15.20;;;;;;;;;;5477430;26;20871;-70
2024/04/21 10:28:24;;;;;;;16.23;15.63;;;;;;;;;;5456143;26;20464;-70
2024/04/21 10:30:54;;;;;;;16.90;16.30;;;;;;;;;;5461308;26;20466;-70
2024/04/21 10:33:28;;;;;;;16.90;16.30;;;;;;;;;;5473889;26;20485;-71
2024/04/21 10:35:59;;;;;;;16.93;16.33;;;;;;;;;;5467314;26;20477;-70
2024/04/21 10:38:25;;;;;;;16.40;15.80;;;;;;;;;;5475020;26;20479;-69
2024/04/21 10:40:54;;;;;;;16.83;16.23;;;;;;;;;;5465802;26;20970;-72
2024/04/21 10:43:24;;;;;;;16.60;16.00;;;;;;;;;;5479042;26;20463;-71
2024/04/21 10:45:57;;;;;;;16.93;16.23;;;;;;;;;;5466424;26;20531;-69
2024/04/21 10:48:26;;;;;;;17.30;16.60;;;;;;;;;;5451001;26;20483;-69
2024/04/21 10:50:56;;;;;;;17.70;17.00;;;;;;;;;;5464991;26;20550;-70
2024/04/21 10:53:22;;;;;;;16.37;15.77;;;;;;;;;;5470303;26;20554;-70
2024/04/21 10:55:53;;;;;;;15.93;15.33;;;;;;;;;;5479087;26;20908;-69
2024/04/21 10:58:20;;;;;;;16.57;15.97;;;;;;;;;;5468843;26;21082;-70
2024/04/21 11:00:49;;;;;;;16.13;15.53;;;;;;;;;;5472728;26;20527;-71
2024/04/21 11:03:16;;;;;;;16.70;16.10;;;;;;;;;;5467020;26;21659;-70
2024/04/21 11:05:53;;;;;;;16.53;15.93;;;;;;;;;;5470450;26;20585;-69
2024/04/21 11:08:23;;;;;;;16.00;15.40;;;;;;;;;;5477359;26;20482;-70
2024/04/21 11:10:52;;;;;;;15.90;15.30;;;;;;;;;;5474062;26;20492;-70
2024/04/21 11:13:18;;;;;;;16.43;15.83;;;;;;;;;;5462154;26;20929;-71
2024/04/21 11:15:47;;;;;;;15.87;15.27;;;;;;;;;;5490611;26;21116;-71
2024/04/21 11:18:15;;;;;;;16.70;16.10;;;;;;;;;;5467390;26;20604;-71
2024/04/21 11:20:44;;;;;;;16.60;16.00;;;;;;;;;;5469873;26;20555;-70
2024/04/21 11:23:14;;;;;;;16.73;16.13;;;;;;;;;;5463161;26;20570;-73
2024/04/21 11:25:43;;;;;;;16.60;16.00;;;;;;;;;;5460210;26;20478;-72
2024/04/21 11:28:10;;;;;;;17.17;16.50;;;;;;;;;;5459936;26;21097;-71
2024/04/21 11:30:40;;;;;;;16.27;15.67;;;;;;;;;;5474173;26;21033;-71
2024/04/21 11:33:06;;;;;;;16.63;16.03;;;;;;;;;;5470504;26;20463;-72
2024/04/21 11:35:35;;;;;;;16.80;16.20;;;;;;;;;;5475603;26;20537;-71
2024/04/21 11:38:01;;;;;;;17.30;16.60;;;;;;;;;;5465228;26;20503;-71
2024/04/21 11:40:33;;;;;;;16.27;15.67;;;;;;;;;;5466532;26;20534;-70
2024/04/21 11:43:01;;;;;;;16.00;15.40;;;;;;;;;;5455974;26;20493;-71
2024/04/21 11:45:30;;;;;;;16.40;15.80;;;;;;;;;;5470421;26;20526;-71
2024/04/21 11:47:56;;;;;;;16.07;15.47;;;;;;;;;;5479386;26;20607;-72
2024/04/21 11:50:26;;;;;;;16.17;15.57;;;;;;;;;;5478203;26;21184;-71
2024/04/21 11:52:52;;;;;;;22.53;21.23;;;;;;;;;;5459424;26;20476;-68
2024/04/21 11:55:21;;;;;;;25.50;24.00;;;;;;;;;;5471169;26;20467;-70
2024/04/21 11:57:50;;;;;;;22.70;21.50;;;;;;;;;;5476991;26;20462;-71
2024/04/21 12:00:19;;;;;;;21.80;20.70;;;;;;;;;;5462630;26;20539;-70
2024/04/21 12:02:45;;;;;;;20.77;19.87;;;;;;;;;;5476990;26;20469;-70
2024/04/21 12:05:14;;;;;;;18.77;17.97;;;;;;;;;;5478344;26;20454;-70
2024/04/21 12:07:40;;;;;;;17.10;16.40;;;;;;;;;;5465324;26;20537;-73
2024/04/21 12:10:10;;;;;;;19.73;18.83;;;;;;;;;;5463506;26;20531;-70
2024/04/21 12:12:37;;;;;;;16.93;16.33;;;;;;;;;;5470804;26;20892;-70
2024/04/21 12:15:08;;;;;;;17.03;16.43;;;;;;;;;;5477590;26;20477;-70
2024/04/21 12:17:36;;;;;;;17.07;16.47;;;;;;;;;;5454471;26;20482;-72
2024/04/21 12:20:05;;;;;;;17.50;16.80;;;;;;;;;;5469796;26;20615;-71
2024/04/21 12:22:31;;;;;;;16.53;15.93;;;;;;;;;;5468209;26;20488;-70
2024/04/21 12:25:00;;;;;;;17.33;16.63;;;;;;;;;;5468895;26;21308;-71
2024/04/21 12:27:26;;;;;;;15.60;15.00;;;;;;;;;;5482950;26;20588;-73
2024/04/21 12:29:55;;;;;;;16.00;15.40;;;;;;;;;;5473800;26;20456;-70
2024/04/21 12:32:24;;;;;;;16.33;15.73;;;;;;;;;;5474515;26;20828;-71
2024/04/21 12:34:55;;;;;;;16.30;15.70;;;;;;;;;;5458005;26;20529;-71
2024/04/21 12:37:21;;;;;;;16.67;16.07;;;;;;;;;;5482200;26;20464;-71
2024/04/21 12:39:50;;;;;;;16.00;15.40;;;;;;;;;;5475529;26;20909;-71
2024/04/21 12:42:16;;;;;;;16.50;15.90;;;;;;;;;;5454618;26;20559;-70
2024/04/21 12:44:45;;;;;;;16.57;15.97;;;;;;;;;;5487595;26;20467;-70
2024/04/21 12:47:13;;;;;;;16.00;15.40;;;;;;;;;;5490280;26;20551;-71
2024/04/21 12:49:45;;;;;;;16.37;15.77;;;;;;;;;;5473693;26;20539;-71
2024/04/21 12:52:11;;;;;;;16.07;15.47;;;;;;;;;;5463820;26;20531;-70
2024/04/21 12:54:40;;;;;;;16.20;15.60;;;;;;;;;;5477120;26;20537;-71
2024/04/21 12:57:07;;;;;;;15.80;15.20;;;;;;;;;;5456731;26;20580;-70
2024/04/21 12:59:36;;;;;;;15.90;15.30;;;;;;;;;;5463761;26;20488;-70
2024/04/21 13:02:02;;;;;;;15.97;15.37;;;;;;;;;;5462765;26;21050;-71
2024/04/21 13:04:31;;;;;;;15.23;14.73;;;;;;;;;;5476933;26;20474;-70
2024/04/21 13:07:00;;;;;;;15.63;15.03;;;;;;;;;;5477963;26;20532;-70
2024/04/21 13:09:28;;;;;;;16.07;15.47;;;;;;;;;;5474799;26;20540;-71
2024/04/21 13:11:57;;;;;;;16.50;15.90;;;;;;;;;;5474352;26;20549;-69
2024/04/21 13:14:24;;;;;;;16.30;15.70;;;;;;;;;;5477559;26;20611;-71
2024/04/21 13:16:53;;;;;;;16.37;15.77;;;;;;;;;;5482461;26;20532;-71
2024/04/21 13:19:23;;;;;;;21.20;20.10;;;;;;;;;;5465205;26;20585;-68
2024/04/21 13:21:52;;;;;;;24.60;23.20;;;;;;;;;;5468052;26;20590;-69
2024/04/21 13:24:21;;;;;;;23.93;22.63;;;;;;;;;;5518139;26;20470;-72
2024/04/21 13:26:50;;;;;;;23.70;22.40;;;;;;;;;;5500519;26;20480;-69
2024/04/21 13:29:16;;;;;;;22.63;21.53;;;;;;;;;;5501925;25;20468;-69
2024/04/21 13:31:46;;;;;;;17.30;16.60;;;;;;;;;;5505337;26;20837;-69
2024/04/21 13:34:12;;;;;;;16.60;16.00;;;;;;;;;;5507650;26;20471;-69
2024/04/21 13:36:41;;;;;;;16.67;16.07;;;;;;;;;;5501899;26;20491;-70
2024/04/21 13:39:08;;;;;;;16.87;16.17;;;;;;;;;;5504146;26;20476;-70
2024/04/21 13:41:39;;;;;;;16.10;15.50;;;;;;;;;;5513128;25;20610;-73
2024/04/21 13:44:05;;;;;;;16.03;15.43;;;;;;;;;;5515522;26;20471;-71
2024/04/21 13:46:34;;;;;;;16.17;15.57;;;;;;;;;;5499920;26;20475;-70
2024/04/21 13:49:00;;;;;;;15.83;15.23;;;;;;;;;;5508838;26;20542;-70
2024/04/21 13:51:30;;;;;;;17.20;16.50;;;;;;;;;;5518279;25;20473;-70
2024/04/21 13:53:56;;;;;;;17.30;16.60;;;;;;;;;;5496514;25;20475;-70
2024/04/21 13:56:25;;;;;;;16.40;15.80;;;;;;;;;;5517232;25;20461;-73
2024/04/21 13:58:54;;;;;;;16.40;15.80;;;;;;;;;;5508326;26;20479;-72
2024/04/21 14:01:23;;;;;;;16.00;15.40;;;;;;;;;;5502530;26;20823;-70
2024/04/21 14:03:50;;;;;;;15.07;14.57;;;;;;;;;;5505506;26;21162;-71
2024/04/21 14:06:20;;;;;;;16.40;15.80;;;;;;;;;;5506677;26;20870;-70
2024/04/21 14:08:48;;;;;;;17.17;16.47;;;;;;;;;;5511938;26;20671;-69
2024/04/21 14:11:15;;;;;;;17.20;16.50;;;;;;;;;;5506577;25;20557;-70
2024/04/21 14:13:44;;;;;;;17.30;16.60;;;;;;;;;;5502047;25;20479;-69
2024/04/21 14:16:12;;;;;;;18.67;17.87;;;;;;;;;;5498853;26;20747;-69
2024/04/21 14:18:42;;;;;;;23.93;22.53;;;;;;;;;;5511317;26;20878;-68
2024/04/21 14:21:08;;;;;;;22.13;20.93;;;;;;;;;;5510297;26;20849;-69
2024/04/21 14:23:38;;;;;;;21.73;20.63;;;;;;;;;;5510874;26;20493;-68
2024/04/21 14:26:04;;;;;;;19.67;18.77;;;;;;;;;;5506472;26;20482;-69